Time,TemperatureF,DewpointF,PressureIn,WindDirection,WindDirectionDegrees,WindSpeedMPH,WindSpeedGustMPH,Humidity,HourlyPrecipIn,Conditions,Clouds,dailyrainin,SolarRadiationWatts/m^2,SoftwareType,DateUTC
2013-06-07 00:23:00,51.0,49.0,-100.00,SE,138,3.0,20.0,94,0.00,,,0.00,0.000000,,2013-06-07 10:23:00,
2013-06-07 00:32:00,51.0,49.0,-100.00,SE,138,3.0,20.0,94,0.00,,,0.00,0.000000,,2013-06-07 10:32:00,
2013-06-07 00:42:00,51.0,49.0,-100.00,SE,138,3.0,20.0,94,0.00,,,0.00,0.000000,,2013-06-07 10:42:00,
2013-06-07 00:52:00,51.0,49.0,-100.00,SE,138,3.0,20.0,94,0.00,,,0.00,0.000000,,2013-06-07 10:52:00,
2013-06-07 01:22:00,49.0,47.0,-100.00,East,98,8.0,16.0,94,0.00,,,0.00,0.000000,,2013-06-07 11:22:00,
2013-06-07 01:32:00,49.0,47.0,-100.00,East,98,8.0,16.0,94,0.00,,,0.00,0.000000,,2013-06-07 11:32:00,
2013-06-07 01:42:00,49.0,47.0,-100.00,East,98,8.0,16.0,94,0.00,,,0.00,0.000000,,2013-06-07 11:42:00,
2013-06-07 01:52:00,49.0,47.0,-100.00,East,98,8.0,16.0,94,0.00,,,0.00,0.000000,,2013-06-07 11:52:00,
2013-06-07 02:22:00,48.0,46.0,-100.00,ESE,107,9.0,15.0,94,0.00,,,-99.99,0.000000,,2013-06-07 12:22:00,
2013-06-07 02:32:00,48.0,46.0,-100.00,ESE,107,9.0,15.0,94,0.00,,,-99.99,0.000000,,2013-06-07 12:32:00,
2013-06-07 02:42:00,48.0,46.0,-100.00,ESE,107,9.0,15.0,94,0.00,,,-99.99,0.000000,,2013-06-07 12:42:00,
2013-06-07 02:52:00,48.0,46.0,-100.00,ESE,107,9.0,15.0,94,0.00,,,-99.99,0.000000,,2013-06-07 12:52:00,
2013-06-07 04:22:00,47.0,43.0,-100.00,ESE,105,12.0,19.0,87,-99.99,,,0.00,0.000000,,2013-06-07 14:22:00,
2013-06-07 04:32:00,47.0,43.0,-100.00,ESE,105,12.0,19.0,87,-99.99,,,0.00,0.000000,,2013-06-07 14:32:00,
2013-06-07 04:42:00,47.0,43.0,-100.00,ESE,105,12.0,19.0,87,-99.99,,,0.00,0.000000,,2013-06-07 14:42:00,
2013-06-07 04:52:00,47.0,43.0,-100.00,ESE,105,12.0,19.0,87,-99.99,,,0.00,0.000000,,2013-06-07 14:52:00,
2013-06-07 05:22:00,45.0,42.0,-100.00,ESE,122,10.0,20.0,89,0.00,,,0.00,0.000000,,2013-06-07 15:22:00,
2013-06-07 05:33:00,45.0,42.0,-100.00,ESE,122,10.0,20.0,89,0.00,,,0.00,0.000000,,2013-06-07 15:33:00,
2013-06-07 05:43:00,45.0,42.0,-100.00,ESE,122,10.0,20.0,89,0.00,,,0.00,0.000000,,2013-06-07 15:43:00,
2013-06-07 05:53:00,45.0,42.0,-100.00,ESE,122,10.0,20.0,89,0.00,,,0.00,0.000000,,2013-06-07 15:53:00,
2013-06-07 06:22:00,47.0,44.0,-100.00,ESE,117,10.0,18.0,89,0.00,,,0.00,2.000000,,2013-06-07 16:22:00,
2013-06-07 06:33:00,47.0,44.0,-100.00,ESE,117,10.0,18.0,89,0.00,,,0.00,2.000000,,2013-06-07 16:33:00,
2013-06-07 06:43:00,47.0,44.0,-100.00,ESE,117,10.0,18.0,89,0.00,,,0.00,2.000000,,2013-06-07 16:43:00,
2013-06-07 06:52:00,47.0,44.0,-100.00,ESE,117,10.0,18.0,89,0.00,,,0.00,2.000000,,2013-06-07 16:52:00,
2013-06-07 07:22:00,49.0,45.0,-100.00,ESE,121,18.0,29.0,87,0.00,,,0.00,168.000000,,2013-06-07 17:22:00,
2013-06-07 07:32:00,49.0,45.0,-100.00,ESE,121,18.0,29.0,87,0.00,,,0.00,168.000000,,2013-06-07 17:32:00,
2013-06-07 07:42:00,49.0,45.0,-100.00,ESE,121,18.0,29.0,87,0.00,,,0.00,168.000000,,2013-06-07 17:42:00,
2013-06-07 07:52:00,49.0,45.0,-100.00,ESE,121,18.0,29.0,87,0.00,,,0.00,168.000000,,2013-06-07 17:52:00,
2013-06-07 08:23:00,51.0,47.0,-100.00,ESE,112,20.0,32.0,85,0.00,,,0.00,429.000000,,2013-06-07 18:23:00,
2013-06-07 08:35:00,51.0,47.0,-100.00,ESE,112,20.0,32.0,85,0.00,,,0.00,429.000000,,2013-06-07 18:35:00,
2013-06-07 08:43:00,51.0,47.0,-100.00,ESE,112,20.0,32.0,85,0.00,,,0.00,429.000000,,2013-06-07 18:43:00,
2013-06-07 08:54:00,51.0,47.0,-100.00,ESE,112,20.0,32.0,85,0.00,,,0.00,429.000000,,2013-06-07 18:54:00,
2013-06-07 09:27:00,54.0,46.0,-100.00,ESE,109,23.0,37.0,74,0.00,,,0.00,692.000000,,2013-06-07 19:27:00,
2013-06-07 09:34:00,54.0,46.0,-100.00,ESE,109,23.0,37.0,74,0.00,,,0.00,692.000000,,2013-06-07 19:34:00,
2013-06-07 09:44:00,54.0,46.0,-100.00,ESE,109,23.0,37.0,74,0.00,,,0.00,692.000000,,2013-06-07 19:44:00,
2013-06-07 09:54:00,54.0,46.0,-100.00,ESE,109,23.0,37.0,74,0.00,,,0.00,692.000000,,2013-06-07 19:54:00,
2013-06-07 10:23:00,60.0,48.0,-100.00,ESE,104,23.0,36.0,65,0.00,,,0.00,1002.000000,,2013-06-07 20:23:00,
2013-06-07 10:44:00,60.0,48.0,-100.00,ESE,104,23.0,36.0,65,0.00,,,0.00,1002.000000,,2013-06-07 20:44:00,
2013-06-07 10:53:00,60.0,48.0,-100.00,ESE,104,23.0,36.0,65,0.00,,,0.00,1002.000000,,2013-06-07 20:53:00,
2013-06-07 11:25:00,62.0,48.0,-100.00,East,86,17.0,33.0,60,0.00,,,0.00,1193.000000,,2013-06-07 21:25:00,
2013-06-07 11:44:00,62.0,48.0,-100.00,East,86,17.0,33.0,60,0.00,,,0.00,1193.000000,,2013-06-07 21:44:00,
2013-06-07 11:54:00,62.0,48.0,-100.00,East,86,17.0,33.0,60,0.00,,,0.00,1193.000000,,2013-06-07 21:54:00,
2013-06-07 12:25:00,65.0,45.0,-100.00,East,93,16.0,27.0,48,0.00,,,0.00,1276.000000,,2013-06-07 22:25:00,
2013-06-07 12:34:00,65.0,45.0,-100.00,East,93,16.0,27.0,48,0.00,,,0.00,1276.000000,,2013-06-07 22:34:00,
2013-06-07 12:44:00,65.0,45.0,-100.00,East,93,16.0,27.0,48,0.00,,,0.00,1276.000000,,2013-06-07 22:44:00,
2013-06-07 12:54:00,65.0,45.0,-100.00,East,93,16.0,27.0,48,0.00,,,0.00,1276.000000,,2013-06-07 22:54:00,
2013-06-07 13:26:00,66.0,48.0,-100.00,East,101,16.0,29.0,52,0.00,,,0.00,1306.000000,,2013-06-07 23:26:00,
2013-06-07 13:35:00,66.0,48.0,-100.00,East,101,16.0,29.0,52,0.00,,,0.00,1306.000000,,2013-06-07 23:35:00,
2013-06-07 13:46:00,66.0,48.0,-100.00,East,101,16.0,29.0,52,0.00,,,0.00,1306.000000,,2013-06-07 23:46:00,
2013-06-07 13:54:00,66.0,48.0,-100.00,East,101,16.0,29.0,52,0.00,,,0.00,1306.000000,,2013-06-07 23:54:00,
2013-06-07 14:26:00,66.0,48.0,-100.00,East,97,16.0,29.0,52,0.00,,,0.00,1271.000000,,2013-06-08 00:26:00,
2013-06-07 14:34:00,66.0,48.0,-100.00,East,97,16.0,29.0,52,0.00,,,0.00,1271.000000,,2013-06-08 00:34:00,
2013-06-07 14:44:00,66.0,48.0,-100.00,East,97,16.0,29.0,52,0.00,,,0.00,1271.000000,,2013-06-08 00:44:00,
2013-06-07 14:53:00,66.0,48.0,-100.00,East,97,16.0,29.0,52,0.00,,,0.00,1271.000000,,2013-06-08 00:53:00,
2013-06-07 15:26:00,67.0,48.0,-100.00,East,93,12.0,26.0,50,0.00,,,0.00,1140.000000,,2013-06-08 01:26:00,
2013-06-07 15:37:00,67.0,48.0,-100.00,East,93,12.0,26.0,50,0.00,,,0.00,1140.000000,,2013-06-08 01:37:00,
2013-06-07 15:43:00,67.0,48.0,-100.00,East,93,12.0,26.0,50,0.00,,,0.00,1140.000000,,2013-06-08 01:43:00,
2013-06-07 15:54:00,67.0,48.0,-100.00,East,93,12.0,26.0,50,0.00,,,0.00,1140.000000,,2013-06-08 01:54:00,
2013-06-07 16:27:00,65.0,48.0,-100.00,East,90,14.0,25.0,55,0.00,,,0.00,953.000000,,2013-06-08 02:27:00,
2013-06-07 16:33:00,65.0,48.0,-100.00,East,90,14.0,25.0,55,0.00,,,0.00,953.000000,,2013-06-08 02:33:00,
2013-06-07 16:45:00,65.0,48.0,-100.00,East,90,14.0,25.0,55,0.00,,,0.00,953.000000,,2013-06-08 02:45:00,
2013-06-07 16:54:00,65.0,48.0,-100.00,East,90,14.0,25.0,55,0.00,,,0.00,953.000000,,2013-06-08 02:54:00,
2013-06-07 17:25:00,63.0,51.0,-100.00,East,89,13.0,23.0,66,0.00,,,0.00,468.000000,,2013-06-08 03:25:00,
2013-06-07 17:35:00,63.0,51.0,-100.00,East,89,13.0,23.0,66,0.00,,,0.00,468.000000,,2013-06-08 03:35:00,
2013-06-07 17:54:00,63.0,51.0,-100.00,East,89,13.0,23.0,66,0.00,,,0.00,468.000000,,2013-06-08 03:54:00,
2013-06-07 18:23:00,59.0,52.0,-100.00,East,96,18.0,26.0,77,0.00,,,0.00,60.000000,,2013-06-08 04:23:00,
2013-06-07 18:33:00,59.0,52.0,-100.00,East,96,18.0,26.0,77,0.00,,,0.00,60.000000,,2013-06-08 04:33:00,
2013-06-07 18:42:00,59.0,52.0,-100.00,East,96,18.0,26.0,77,0.00,,,0.00,60.000000,,2013-06-08 04:42:00,
2013-06-07 18:53:00,59.0,52.0,-100.00,East,96,18.0,26.0,77,0.00,,,0.00,60.000000,,2013-06-08 04:53:00,
2013-06-07 19:22:00,53.0,49.0,-100.00,East,99,19.0,28.0,85,0.00,,,0.00,45.000000,,2013-06-08 05:22:00,
2013-06-07 19:32:00,53.0,49.0,-100.00,East,99,19.0,28.0,85,0.00,,,0.00,45.000000,,2013-06-08 05:32:00,
2013-06-07 19:42:00,53.0,49.0,-100.00,East,99,19.0,28.0,85,0.00,,,0.00,45.000000,,2013-06-08 05:42:00,
2013-06-07 19:52:00,53.0,49.0,-100.00,East,99,19.0,28.0,85,0.00,,,0.00,45.000000,,2013-06-08 05:52:00,
2013-06-07 20:22:00,51.0,48.0,-100.00,East,93,15.0,27.0,90,0.00,,,-99.99,0.000000,,2013-06-08 06:22:00,
2013-06-07 20:32:00,51.0,48.0,-100.00,East,93,15.0,27.0,90,0.00,,,-99.99,0.000000,,2013-06-08 06:32:00,
2013-06-07 20:42:00,51.0,48.0,-100.00,East,93,15.0,27.0,90,0.00,,,-99.99,0.000000,,2013-06-08 06:42:00,
2013-06-07 20:52:00,51.0,48.0,-100.00,East,93,15.0,27.0,90,0.00,,,-99.99,0.000000,,2013-06-08 06:52:00,
2013-06-07 21:22:00,52.0,50.0,-100.00,ESE,116,11.0,25.0,92,0.00,,,0.00,0.000000,,2013-06-08 07:22:00,
2013-06-07 21:32:00,52.0,50.0,-100.00,ESE,116,11.0,25.0,92,0.00,,,0.00,0.000000,,2013-06-08 07:32:00,
2013-06-07 21:42:00,52.0,50.0,-100.00,ESE,116,11.0,25.0,92,0.00,,,0.00,0.000000,,2013-06-08 07:42:00,
2013-06-07 21:52:00,52.0,50.0,-100.00,ESE,116,11.0,25.0,92,0.00,,,0.00,0.000000,,2013-06-08 07:52:00,
2013-06-07 22:22:00,50.0,48.0,-100.00,ESE,114,15.0,23.0,93,0.00,,,0.00,0.000000,,2013-06-08 08:22:00,
2013-06-07 22:32:00,50.0,48.0,-100.00,ESE,114,15.0,23.0,93,0.00,,,0.00,0.000000,,2013-06-08 08:32:00,
2013-06-07 22:42:00,50.0,48.0,-100.00,ESE,114,15.0,23.0,93,0.00,,,0.00,0.000000,,2013-06-08 08:42:00,
2013-06-07 22:52:00,50.0,48.0,-100.00,ESE,114,15.0,23.0,93,0.00,,,0.00,0.000000,,2013-06-08 08:52:00,
2013-06-07 23:12:00,50.0,48.0,-100.00,ESE,120,14.0,23.0,93,0.00,,,0.00,0.000000,,2013-06-08 09:12:00,
2013-06-07 23:22:00,50.0,48.0,-100.00,ESE,120,14.0,23.0,93,0.00,,,0.00,0.000000,,2013-06-08 09:22:00,
2013-06-07 23:33:00,50.0,48.0,-100.00,ESE,120,14.0,23.0,93,0.00,,,0.00,0.000000,,2013-06-08 09:33:00,
2013-06-07 23:42:00,50.0,48.0,-100.00,ESE,120,14.0,23.0,93,0.00,,,0.00,0.000000,,2013-06-08 09:42:00,
2013-06-07 23:52:00,50.0,48.0,-100.00,ESE,120,14.0,23.0,93,0.00,,,0.00,0.000000,,2013-06-08 09:52:00,